createdAt,value
2023-04-30T00:00:58.223Z,98.85
2023-04-30T00:01:58.231Z,98.09
2023-04-30T00:02:58.272Z,98.57
2023-04-30T00:03:58.337Z,98.38
2023-04-30T00:04:58.178Z,98.38
2023-04-30T00:05:58.186Z,98.66
2023-04-30T00:06:58.156Z,98.57
2023-04-30T00:07:58.149Z,98.38
2023-04-30T00:08:58.160Z,98.38
2023-04-30T00:09:58.117Z,99.14
2023-04-30T00:10:58.112Z,99.24
2023-04-30T00:11:58.098Z,99.14
2023-04-30T00:12:58.096Z,99.14
2023-04-30T00:13:58.071Z,99.04
2023-04-30T00:14:58.086Z,98.95
2023-04-30T00:15:58.085Z,99.24
2023-04-30T00:16:58.048Z,99.43
2023-04-30T00:17:58.080Z,99.33
2023-04-30T00:18:58.019Z,99.24
2023-04-30T00:19:58.007Z,99.14
2023-04-30T00:20:57.993Z,99.81
2023-04-30T00:21:57.995Z,99.62
2023-04-30T00:22:57.969Z,99.24
2023-04-30T00:23:57.955Z,99.19
2023-04-30T00:24:57.963Z,99.57
2023-04-30T00:25:57.931Z,99.57
2023-04-30T00:26:57.928Z,99.48
2023-04-30T00:27:57.909Z,99.19
2023-04-30T00:28:57.914Z,99.85
2023-04-30T00:29:57.898Z,99.95
2023-04-30T00:30:57.879Z,99.95
2023-04-30T00:31:57.924Z,99.99
2023-04-30T00:32:57.902Z,99.99
2023-04-30T00:33:57.836Z,99.95
2023-04-30T00:34:57.828Z,99.99
2023-04-30T00:35:57.828Z,99.95
2023-04-30T00:36:57.808Z,99.85
2023-04-30T00:37:57.791Z,99.57
2023-04-30T00:38:57.782Z,99.99
2023-04-30T00:39:57.814Z,99.76
2023-04-30T00:40:57.783Z,99.57
2023-04-30T00:41:57.743Z,99.99
2023-04-30T00:42:57.740Z,99.99
2023-04-30T00:43:57.717Z,99.95
2023-04-30T00:44:57.707Z,99.99
2023-04-30T00:45:57.714Z,99.95
2023-04-30T00:46:57.689Z,99.99
2023-04-30T00:47:57.751Z,99.95
2023-04-30T00:48:57.664Z,99.85
2023-04-30T00:49:57.648Z,99.99
2023-04-30T00:50:57.646Z,99.85
2023-04-30T00:51:57.628Z,99.85
2023-04-30T00:52:57.620Z,99.99
2023-04-30T00:53:57.599Z,99.99
2023-04-30T00:54:57.590Z,99.95
2023-04-30T00:55:57.580Z,99.99
2023-04-30T00:56:57.603Z,99.85
2023-04-30T00:57:57.553Z,99.99
2023-04-30T00:58:57.546Z,99.95
2023-04-30T00:59:57.528Z,99.99
2023-04-30T01:00:57.563Z,99.85
2023-04-30T01:01:57.516Z,99.99
2023-04-30T01:02:57.601Z,99.99
2023-04-30T01:03:57.478Z,99.85
2023-04-30T01:04:57.479Z,99.99
2023-04-30T01:05:57.508Z,99.99
2023-04-30T01:06:57.449Z,99.99
2023-04-30T01:07:57.435Z,99.99
2023-04-30T01:08:57.420Z,99.99
2023-04-30T01:09:57.416Z,99.99
2023-04-30T01:10:57.409Z,99.99
2023-04-30T01:11:57.390Z,99.99
2023-04-30T01:12:57.400Z,99.99
2023-04-30T01:13:57.362Z,99.99
2023-04-30T01:14:57.355Z,99.99
2023-04-30T01:15:57.368Z,99.99
2023-04-30T01:16:57.332Z,99.99
2023-04-30T01:17:57.399Z,99.99
2023-04-30T01:18:57.406Z,99.99
2023-04-30T01:19:57.310Z,99.99
2023-04-30T01:20:57.282Z,99.99
2023-04-30T01:21:57.263Z,99.99
2023-04-30T01:22:57.254Z,99.99
2023-04-30T01:23:57.238Z,99.99
2023-04-30T01:24:57.273Z,99.99
2023-04-30T01:25:57.225Z,99.99
2023-04-30T01:26:57.207Z,99.99
2023-04-30T01:27:57.192Z,99.99
2023-04-30T01:28:57.208Z,99.99
2023-04-30T01:29:57.166Z,99.99
2023-04-30T01:30:57.210Z,99.99
2023-04-30T01:31:57.148Z,99.99
2023-04-30T01:32:57.159Z,99.99
2023-04-30T01:33:57.132Z,99.99
2023-04-30T01:34:57.113Z,99.99
2023-04-30T01:35:57.118Z,99.99
2023-04-30T01:36:57.088Z,99.99
2023-04-30T01:37:57.078Z,99.99
2023-04-30T01:38:57.122Z,99.99
2023-04-30T01:39:57.324Z,99.99
2023-04-30T01:40:57.042Z,99.99
2023-04-30T01:41:57.028Z,99.99
2023-04-30T01:42:57.034Z,99.99
2023-04-30T01:43:57.013Z,99.99
2023-04-30T01:44:57.015Z,99.99
2023-04-30T01:45:57.015Z,99.99
2023-04-30T01:46:56.982Z,99.99
2023-04-30T01:47:56.982Z,99.99
2023-04-30T01:48:56.954Z,99.99
2023-04-30T01:49:57.043Z,99.99
2023-04-30T01:50:56.928Z,99.99
2023-04-30T01:51:56.910Z,99.99
2023-04-30T01:52:56.902Z,99.99
2023-04-30T01:53:56.890Z,99.99
2023-04-30T01:54:56.886Z,99.99
2023-04-30T01:55:56.862Z,99.99
2023-04-30T01:56:56.853Z,99.99
2023-04-30T01:57:56.839Z,99.99
2023-04-30T01:58:56.840Z,99.99
2023-04-30T01:59:56.903Z,99.99
2023-04-30T02:00:56.827Z,99.99
2023-04-30T02:01:56.822Z,99.99
2023-04-30T02:02:56.978Z,99.99
2023-04-30T02:03:56.844Z,99.99
2023-04-30T02:04:56.764Z,99.99
2023-04-30T02:05:56.787Z,99.99
2023-04-30T02:06:56.738Z,99.99
2023-04-30T02:07:56.720Z,99.99
2023-04-30T02:08:56.744Z,99.99
2023-04-30T02:09:56.700Z,99.99
2023-04-30T02:10:56.691Z,99.99
2023-04-30T02:11:56.672Z,99.99
2023-04-30T02:12:56.667Z,99.99
2023-04-30T02:13:56.662Z,99.99
2023-04-30T02:14:56.638Z,99.99
2023-04-30T02:15:56.661Z,99.99
2023-04-30T02:16:56.650Z,99.99
2023-04-30T02:17:56.656Z,99.99
2023-04-30T02:18:56.612Z,99.99
2023-04-30T02:19:56.737Z,99.99
2023-04-30T02:20:56.566Z,99.99
2023-04-30T02:21:56.558Z,99.99
2023-04-30T02:22:56.544Z,99.99
2023-04-30T02:23:56.525Z,99.99
2023-04-30T02:24:56.530Z,99.99
2023-04-30T02:25:56.502Z,99.99
2023-04-30T02:26:56.491Z,99.99
2023-04-30T02:27:56.474Z,99.99
2023-04-30T02:28:56.464Z,99.99
2023-04-30T02:29:56.772Z,99.99
2023-04-30T02:30:56.440Z,99.99
2023-04-30T02:31:56.558Z,99.99
2023-04-30T02:32:56.461Z,99.99
2023-04-30T02:33:56.406Z,99.99
2023-04-30T02:34:56.403Z,99.99
2023-04-30T02:35:56.377Z,99.99
2023-04-30T02:36:56.370Z,99.99
2023-04-30T02:37:56.350Z,99.99
2023-04-30T02:38:56.347Z,99.99
2023-04-30T02:39:56.578Z,99.99
2023-04-30T02:40:56.316Z,99.99
2023-04-30T02:41:56.301Z,99.99
2023-04-30T02:42:56.326Z,99.99
2023-04-30T02:43:56.273Z,99.99
2023-04-30T02:44:56.265Z,99.99
2023-04-30T02:45:56.267Z,99.99
2023-04-30T02:46:56.242Z,99.99
2023-04-30T02:47:56.284Z,99.99
2023-04-30T02:48:56.243Z,99.99
2023-04-30T02:49:56.569Z,99.99
2023-04-30T02:50:56.196Z,99.99
2023-04-30T02:51:56.179Z,99.99
2023-04-30T02:52:56.218Z,99.99
2023-04-30T02:53:56.158Z,99.99
2023-04-30T02:54:56.161Z,99.99
2023-04-30T02:55:56.144Z,99.99
2023-04-30T02:56:56.114Z,99.99
2023-04-30T02:57:56.101Z,99.99
2023-04-30T02:58:56.092Z,99.99
2023-04-30T02:59:56.577Z,99.99
2023-04-30T03:00:56.114Z,99.99
2023-04-30T03:01:56.053Z,99.99
2023-04-30T03:02:56.107Z,99.99
2023-04-30T03:03:56.023Z,99.99
2023-04-30T03:04:56.035Z,99.99
2023-04-30T03:05:56.015Z,99.99
2023-04-30T03:06:55.989Z,99.99
2023-04-30T03:07:55.974Z,99.99
2023-04-30T03:08:55.964Z,99.99
2023-04-30T03:09:56.209Z,99.99
2023-04-30T03:10:55.940Z,99.99
2023-04-30T03:11:55.923Z,99.99
2023-04-30T03:12:55.913Z,99.99
2023-04-30T03:13:55.899Z,99.99
2023-04-30T03:14:55.895Z,99.99
2023-04-30T03:15:55.897Z,99.99
2023-04-30T03:16:55.865Z,99.99
2023-04-30T03:17:55.895Z,99.99
2023-04-30T03:18:55.845Z,99.99
2023-04-30T03:19:56.083Z,99.99
2023-04-30T03:20:55.829Z,99.99
2023-04-30T03:21:55.804Z,99.99
2023-04-30T03:22:55.805Z,99.99
2023-04-30T03:24:55.769Z,99.99
2023-04-30T03:25:55.758Z,99.99
2023-04-30T03:26:55.753Z,99.99
2023-04-30T03:27:55.732Z,99.99
2023-04-30T03:28:55.734Z,99.99
2023-04-30T03:29:55.991Z,99.99
2023-04-30T03:30:55.696Z,99.99
2023-04-30T03:32:55.687Z,99.99
2023-04-30T03:33:55.767Z,99.99
2023-04-30T03:34:55.643Z,99.99
2023-04-30T03:35:55.632Z,99.99
2023-04-30T03:36:55.654Z,99.99
2023-04-30T03:37:55.612Z,99.99
2023-04-30T03:38:55.596Z,99.99
2023-04-30T03:39:55.831Z,99.99
2023-04-30T03:40:55.569Z,99.99
2023-04-30T03:41:55.564Z,99.99
2023-04-30T03:42:55.551Z,99.99
2023-04-30T03:43:55.545Z,99.99
2023-04-30T03:44:55.523Z,99.99
2023-04-30T03:45:55.598Z,99.99
2023-04-30T03:46:55.501Z,99.99
2023-04-30T03:47:55.506Z,99.99
2023-04-30T03:48:55.472Z,99.99
2023-04-30T03:49:56.013Z,99.99
2023-04-30T03:50:55.455Z,99.99
2023-04-30T03:51:55.442Z,99.99
2023-04-30T03:52:55.463Z,99.99
2023-04-30T03:53:55.417Z,99.99
2023-04-30T03:54:55.410Z,99.99
2023-04-30T03:55:55.394Z,99.99
2023-04-30T03:56:55.377Z,99.99
2023-04-30T03:57:55.368Z,99.99
2023-04-30T03:58:55.360Z,99.99
2023-04-30T03:59:55.662Z,99.99
2023-04-30T04:00:55.329Z,99.99
2023-04-30T04:01:55.356Z,99.99
2023-04-30T04:02:55.412Z,99.99
2023-04-30T04:03:55.316Z,99.99
2023-04-30T04:04:55.287Z,99.99
2023-04-30T04:05:55.339Z,99.99
2023-04-30T04:06:55.258Z,99.99
2023-04-30T04:07:55.247Z,99.99
2023-04-30T04:08:55.259Z,99.99
2023-04-30T04:09:55.681Z,99.99
2023-04-30T04:10:55.208Z,99.99
2023-04-30T04:11:55.402Z,99.99
2023-04-30T04:12:55.187Z,99.99
2023-04-30T04:13:55.177Z,99.99
2023-04-30T04:14:55.164Z,99.99
2023-04-30T04:15:55.178Z,99.99
2023-04-30T04:16:55.135Z,99.99
2023-04-30T04:17:55.190Z,99.99
2023-04-30T04:18:55.115Z,99.99
2023-04-30T04:19:55.431Z,99.99
2023-04-30T04:20:55.086Z,99.99
2023-04-30T04:21:55.082Z,99.99
2023-04-30T04:22:55.061Z,99.99
2023-04-30T04:23:55.057Z,99.99
2023-04-30T04:24:55.066Z,99.99
2023-04-30T04:25:55.028Z,99.99
2023-04-30T04:26:55.014Z,99.99
2023-04-30T04:27:55.001Z,99.99
2023-04-30T04:28:54.998Z,99.99
2023-04-30T04:29:55.269Z,99.99
2023-04-30T04:30:54.969Z,99.99
2023-04-30T04:31:54.986Z,99.99
2023-04-30T04:32:54.953Z,99.99
2023-04-30T04:33:54.935Z,99.99
2023-04-30T04:34:54.913Z,99.99
2023-04-30T04:35:54.904Z,99.99
2023-04-30T04:36:54.888Z,99.99
2023-04-30T04:37:54.878Z,99.99
2023-04-30T04:38:54.864Z,99.99
2023-04-30T04:39:55.090Z,99.99
2023-04-30T04:40:54.858Z,99.99
2023-04-30T04:41:54.832Z,99.99
2023-04-30T04:42:54.811Z,99.99
2023-04-30T04:43:54.819Z,99.99
2023-04-30T04:44:54.797Z,99.99
2023-04-30T04:45:54.800Z,99.99
2023-04-30T04:46:54.813Z,99.99
2023-04-30T04:47:54.806Z,99.99
2023-04-30T04:48:54.739Z,99.99
2023-04-30T04:49:54.968Z,99.99
2023-04-30T04:50:54.720Z,99.99
2023-04-30T04:51:54.720Z,99.99
2023-04-30T04:52:54.688Z,99.99
2023-04-30T04:53:54.688Z,99.99
2023-04-30T04:54:54.668Z,99.99
2023-04-30T04:55:54.655Z,99.99
2023-04-30T04:56:54.663Z,99.99
2023-04-30T04:57:54.637Z,99.99
2023-04-30T04:58:54.619Z,99.99
2023-04-30T04:59:54.988Z,99.99
2023-04-30T05:00:54.605Z,99.99
2023-04-30T05:01:54.633Z,99.99
2023-04-30T05:02:54.658Z,99.99
2023-04-30T05:03:54.818Z,99.99
2023-04-30T05:04:54.543Z,99.99
2023-04-30T05:05:54.572Z,99.99
2023-04-30T05:06:54.516Z,99.99
2023-04-30T05:07:54.512Z,99.99
2023-04-30T05:08:54.509Z,99.99
2023-04-30T05:09:54.772Z,99.99
2023-04-30T05:10:54.480Z,99.99
2023-04-30T05:11:54.467Z,99.99
2023-04-30T05:12:54.471Z,99.99
2023-04-30T05:13:54.437Z,99.99
2023-04-30T05:14:54.429Z,99.99
2023-04-30T05:15:54.451Z,99.99
2023-04-30T05:16:54.402Z,99.99
2023-04-30T05:17:54.450Z,99.99
2023-04-30T05:18:54.379Z,99.99
2023-04-30T05:19:54.587Z,99.99
2023-04-30T05:20:54.352Z,99.99
2023-04-30T05:21:54.342Z,99.99
2023-04-30T05:22:54.325Z,99.99
2023-04-30T05:23:54.316Z,99.99
2023-04-30T05:24:54.318Z,99.99
2023-04-30T05:25:54.298Z,99.99
2023-04-30T05:26:54.289Z,99.99
2023-04-30T05:27:54.288Z,99.99
2023-04-30T05:28:54.271Z,99.99
2023-04-30T05:29:54.507Z,99.99
2023-04-30T05:30:54.232Z,99.99
2023-04-30T05:31:54.240Z,99.99
2023-04-30T05:32:54.257Z,99.99
2023-04-30T05:33:54.202Z,99.99
2023-04-30T05:34:54.181Z,99.99
2023-04-30T05:35:54.172Z,99.99
2023-04-30T05:36:54.158Z,99.99
2023-04-30T05:37:54.152Z,99.99
2023-04-30T05:38:54.134Z,99.99
2023-04-30T05:39:54.414Z,99.99
2023-04-30T05:40:54.108Z,99.99
2023-04-30T05:41:54.102Z,99.90
2023-04-30T05:42:54.087Z,99.71
2023-04-30T05:43:54.104Z,99.81
2023-04-30T05:44:54.081Z,99.81
2023-04-30T05:45:54.119Z,99.52
2023-04-30T05:46:54.041Z,99.52
2023-04-30T05:47:54.075Z,99.04
2023-04-30T05:48:54.017Z,99.33
2023-04-30T05:49:54.227Z,98.81
2023-04-30T05:50:53.993Z,99.00
2023-04-30T05:51:53.988Z,98.43
2023-04-30T05:52:53.970Z,98.52
2023-04-30T05:53:53.965Z,98.61
2023-04-30T05:54:53.953Z,98.43
2023-04-30T05:55:53.941Z,98.33
2023-04-30T05:56:53.936Z,98.24
2023-04-30T05:57:53.918Z,98.52
2023-04-30T05:58:53.922Z,98.61
2023-04-30T05:59:54.416Z,99.38
2023-04-30T06:00:53.900Z,99.19
2023-04-30T06:01:53.897Z,98.33
2023-04-30T06:02:53.894Z,99.04
2023-04-30T06:03:53.852Z,99.24
2023-04-30T06:04:53.877Z,99.33
2023-04-30T06:05:54.030Z,99.33
2023-04-30T06:06:53.827Z,99.43
2023-04-30T06:07:53.810Z,99.67
2023-04-30T06:08:53.795Z,99.29
2023-04-30T06:09:53.985Z,98.90
2023-04-30T06:10:53.781Z,98.61
2023-04-30T06:11:53.778Z,98.43
2023-04-30T06:12:53.756Z,99.33
2023-04-30T06:13:53.754Z,99.43
2023-04-30T06:14:53.739Z,99.43
2023-04-30T06:15:53.720Z,99.52
2023-04-30T06:16:53.923Z,99.71
2023-04-30T06:17:53.747Z,99.81
2023-04-30T06:18:54.128Z,99.71
2023-04-30T06:19:53.852Z,99.71
2023-04-30T06:20:53.663Z,99.81
2023-04-30T06:21:53.675Z,99.99
2023-04-30T06:22:53.641Z,99.99
2023-04-30T06:23:53.640Z,99.99
2023-04-30T06:24:53.618Z,99.99
2023-04-30T06:25:53.645Z,99.99
2023-04-30T06:26:53.598Z,99.99
2023-04-30T06:27:53.595Z,99.71
2023-04-30T06:28:53.573Z,99.81
2023-04-30T06:29:53.750Z,99.62
2023-04-30T06:30:53.552Z,99.71
2023-04-30T06:31:53.694Z,99.43
2023-04-30T06:32:53.574Z,99.33
2023-04-30T06:33:53.521Z,99.81
2023-04-30T06:34:53.508Z,99.71
2023-04-30T06:35:53.498Z,99.99
2023-04-30T06:36:53.484Z,99.10
2023-04-30T06:37:53.475Z,99.29
2023-04-30T06:38:53.468Z,98.61
2023-04-30T06:39:53.999Z,99.04
2023-04-30T06:40:53.439Z,98.95
2023-04-30T06:41:53.428Z,99.00
2023-04-30T06:42:53.418Z,98.85
2023-04-30T06:43:53.422Z,99.48
2023-04-30T06:44:53.394Z,99.67
2023-04-30T06:45:53.397Z,99.19
2023-04-30T06:46:53.372Z,98.61
2023-04-30T06:47:53.473Z,98.43
2023-04-30T06:48:53.369Z,98.61
2023-04-30T06:49:53.537Z,98.43
2023-04-30T06:50:53.331Z,98.04
2023-04-30T06:51:53.319Z,97.56
2023-04-30T06:52:53.306Z,98.04
2023-04-30T06:53:53.301Z,97.75
2023-04-30T06:54:53.285Z,97.66
2023-04-30T06:55:53.284Z,97.56
2023-04-30T06:56:53.269Z,98.38
2023-04-30T06:57:53.255Z,96.99
2023-04-30T06:58:53.240Z,97.28
2023-04-30T06:59:53.634Z,96.99
2023-04-30T07:00:53.220Z,96.99
2023-04-30T07:01:53.315Z,96.80
2023-04-30T07:02:53.260Z,96.42
2023-04-30T07:03:53.270Z,97.08
2023-04-30T07:04:53.306Z,96.66
2023-04-30T07:05:53.163Z,97.08
2023-04-30T07:06:53.165Z,96.47
2023-04-30T07:07:53.143Z,96.08
2023-04-30T07:08:53.133Z,96.18
2023-04-30T07:09:53.424Z,96.08
2023-04-30T07:10:53.112Z,95.98
2023-04-30T07:11:53.100Z,95.79
2023-04-30T07:12:53.089Z,95.03
2023-04-30T07:14:53.069Z,95.79
2023-04-30T07:15:53.117Z,95.70
2023-04-30T07:16:53.048Z,95.41
2023-04-30T07:17:53.126Z,95.12
2023-04-30T07:18:53.023Z,95.36
2023-04-30T07:19:53.411Z,94.60
2023-04-30T07:20:53.027Z,94.40
2023-04-30T07:21:52.998Z,94.31
2023-04-30T07:22:52.987Z,94.74
2023-04-30T07:23:52.970Z,95.22
2023-04-30T07:24:52.964Z,95.12
2023-04-30T07:25:52.953Z,95.12
2023-04-30T07:26:52.943Z,95.70
2023-04-30T07:27:52.928Z,95.89
2023-04-30T07:28:52.942Z,95.70
2023-04-30T07:29:53.134Z,96.94
2023-04-30T07:30:52.903Z,96.94
2023-04-30T07:31:53.011Z,96.37
2023-04-30T07:32:52.943Z,96.37
2023-04-30T07:33:52.866Z,95.51
2023-04-30T07:34:52.858Z,95.22
2023-04-30T07:35:52.858Z,95.17
2023-04-30T07:36:52.966Z,95.31
2023-04-30T07:37:52.831Z,95.03
2023-04-30T07:38:52.818Z,95.41
2023-04-30T07:39:53.057Z,95.27
2023-04-30T07:40:52.794Z,95.51
2023-04-30T07:41:52.789Z,95.36
2023-04-30T07:42:52.779Z,95.17
2023-04-30T07:43:52.768Z,94.93
2023-04-30T07:44:52.769Z,94.69
2023-04-30T07:45:52.770Z,94.50
2023-04-30T07:46:52.730Z,94.55
2023-04-30T07:47:52.748Z,94.93
2023-04-30T07:48:52.719Z,95.56
2023-04-30T07:49:53.302Z,95.41
2023-04-30T07:50:53.144Z,95.27
2023-04-30T07:51:52.698Z,95.17
2023-04-30T07:52:52.694Z,94.60
2023-04-30T07:53:52.669Z,94.50
2023-04-30T07:54:52.653Z,94.40
2023-04-30T07:55:52.647Z,94.89
2023-04-30T07:56:52.641Z,95.07
2023-04-30T07:57:52.628Z,94.98
2023-04-30T07:58:52.629Z,95.51
2023-04-30T07:59:53.279Z,95.27
2023-04-30T08:00:52.592Z,95.89
2023-04-30T08:01:52.680Z,95.56
2023-04-30T08:02:52.778Z,95.27
2023-04-30T08:03:52.705Z,95.75
2023-04-30T08:04:52.553Z,95.27
2023-04-30T08:05:52.551Z,95.51
2023-04-30T08:06:52.549Z,95.17
2023-04-30T08:07:52.524Z,95.07
2023-04-30T08:08:52.531Z,94.50
2023-04-30T08:09:52.661Z,94.40
2023-04-30T08:10:52.490Z,94.98
2023-04-30T08:11:52.487Z,94.31
2023-04-30T08:12:52.471Z,94.40
2023-04-30T08:13:52.475Z,94.40
2023-04-30T08:14:52.456Z,94.50
2023-04-30T08:15:52.452Z,94.31
2023-04-30T08:16:52.690Z,94.60
2023-04-30T08:17:52.471Z,93.78
2023-04-30T08:18:52.411Z,93.69
2023-04-30T08:19:52.859Z,93.30
2023-04-30T08:20:52.393Z,93.69
2023-04-30T08:21:52.385Z,93.59
2023-04-30T08:22:52.443Z,93.69
2023-04-30T08:23:52.365Z,93.69
2023-04-30T08:24:52.372Z,93.49
2023-04-30T08:25:52.348Z,93.98
2023-04-30T08:26:53.608Z,94.17
2023-04-30T08:27:52.324Z,93.69
2023-04-30T08:28:52.315Z,93.88
2023-04-30T08:29:52.522Z,93.78
2023-04-30T08:30:52.295Z,93.02
2023-04-30T08:31:52.324Z,92.25
2023-04-30T08:32:52.410Z,92.63
2023-04-30T08:33:52.281Z,92.92
2023-04-30T08:34:52.432Z,92.82
2023-04-30T08:35:52.247Z,92.73
2023-04-30T08:36:52.231Z,93.02
2023-04-30T08:37:52.233Z,92.82
2023-04-30T08:38:52.212Z,92.35
2023-04-30T08:39:52.228Z,92.35
2023-04-30T08:40:52.256Z,91.77
2023-04-30T08:41:52.193Z,92.20
2023-04-30T08:42:52.174Z,91.91
2023-04-30T08:43:52.173Z,90.86
2023-04-30T08:44:52.154Z,91.14
2023-04-30T08:45:52.161Z,91.34
2023-04-30T08:46:52.138Z,90.76
2023-04-30T08:47:52.157Z,90.95
2023-04-30T08:48:52.126Z,91.43
2023-04-30T08:49:52.266Z,91.24
2023-04-30T08:50:52.097Z,91.14
2023-04-30T08:51:52.120Z,90.47
2023-04-30T08:52:52.080Z,90.28
2023-04-30T08:53:52.068Z,89.85
2023-04-30T08:54:52.065Z,89.51
2023-04-30T08:55:52.054Z,89.71
2023-04-30T08:56:52.065Z,89.56
2023-04-30T08:57:52.053Z,89.56
2023-04-30T08:58:52.024Z,89.65
2023-04-30T08:59:52.012Z,89.56
2023-04-30T09:00:52.001Z,89.85
2023-04-30T09:01:53.873Z,89.37
2023-04-30T09:02:52.039Z,89.27
2023-04-30T09:03:52.083Z,89.08
2023-04-30T09:04:51.967Z,88.60
2023-04-30T09:05:51.962Z,88.55
2023-04-30T09:06:51.951Z,88.07
2023-04-30T09:08:01.525Z,87.88
2023-04-30T09:08:51.929Z,88.17
2023-04-30T09:09:52.066Z,87.11
2023-04-30T09:10:51.913Z,86.05
2023-04-30T09:11:51.912Z,86.63
2023-04-30T09:12:51.921Z,87.11
2023-04-30T09:13:51.888Z,87.98
2023-04-30T09:14:51.878Z,87.78
2023-04-30T09:15:51.942Z,87.30
2023-04-30T09:16:51.859Z,87.59
2023-04-30T09:17:51.876Z,87.30
2023-04-30T09:18:51.843Z,87.78
2023-04-30T09:19:51.921Z,87.88
2023-04-30T09:20:51.827Z,87.98
2023-04-30T09:21:51.818Z,87.78
2023-04-30T09:22:51.805Z,87.30
2023-04-30T09:23:51.805Z,86.82
2023-04-30T09:24:51.789Z,87.21
2023-04-30T09:25:51.783Z,87.88
2023-04-30T09:26:51.789Z,87.88
2023-04-30T09:27:51.765Z,87.98
2023-04-30T09:28:51.774Z,87.40
2023-04-30T09:29:51.763Z,87.21
2023-04-30T09:30:51.738Z,87.40
2023-04-30T09:31:51.772Z,88.07
2023-04-30T09:32:51.735Z,88.35
2023-04-30T09:33:51.714Z,88.35
2023-04-30T09:34:51.702Z,87.11
2023-04-30T09:35:51.697Z,86.72
2023-04-30T09:36:51.681Z,87.01
2023-04-30T09:37:51.683Z,86.82
2023-04-30T09:38:51.669Z,85.77
2023-04-30T09:39:51.736Z,85.58
2023-04-30T09:40:51.650Z,85.77
2023-04-30T09:41:51.646Z,86.25
2023-04-30T09:42:51.634Z,85.28
2023-04-30T09:43:51.628Z,85.58
2023-04-30T09:44:51.650Z,85.67
2023-04-30T09:45:51.635Z,86.25
2023-04-30T09:46:51.647Z,86.05
2023-04-30T09:47:52.873Z,85.34
2023-04-30T09:48:51.583Z,85.48
2023-04-30T09:49:51.577Z,86.21
2023-04-30T09:50:51.564Z,85.82
2023-04-30T09:51:51.563Z,85.96
2023-04-30T09:52:51.555Z,86.34
2023-04-30T09:53:51.544Z,85.63
2023-04-30T09:54:51.541Z,85.58
2023-04-30T09:55:51.545Z,85.38
2023-04-30T09:56:51.513Z,85.58
2023-04-30T09:57:51.510Z,85.19
2023-04-30T09:58:51.493Z,84.52
2023-04-30T09:59:51.495Z,85.38
2023-04-30T10:00:51.647Z,85.14
2023-04-30T10:01:51.477Z,84.37
2023-04-30T10:02:51.547Z,83.54
2023-04-30T10:03:51.508Z,82.97
2023-04-30T10:04:51.444Z,82.30
2023-04-30T10:05:51.441Z,81.96
2023-04-30T10:06:51.559Z,82.05
2023-04-30T10:07:51.426Z,81.76
2023-04-30T10:09:51.408Z,81.57
2023-04-30T10:10:51.407Z,80.99
2023-04-30T10:11:51.384Z,81.76
2023-04-30T10:13:51.375Z,82.05
2023-04-30T10:14:51.369Z,82.63
2023-04-30T10:15:51.383Z,83.20
2023-04-30T10:16:51.444Z,83.11
2023-04-30T10:17:51.382Z,83.78
2023-04-30T10:19:51.335Z,83.15
2023-04-30T10:20:51.321Z,82.53
2023-04-30T10:21:51.310Z,81.81
2023-04-30T10:22:51.308Z,82.09
2023-04-30T10:23:51.293Z,81.61
2023-04-30T10:24:51.289Z,81.56
2023-04-30T10:25:51.314Z,80.79
2023-04-30T10:26:51.285Z,80.88
2023-04-30T10:27:51.270Z,80.40
2023-04-30T10:28:51.261Z,80.51
2023-04-30T10:29:51.264Z,80.80
2023-04-30T10:30:51.248Z,81.28
2023-04-30T10:31:51.302Z,80.90
2023-04-30T10:32:51.310Z,81.86
2023-04-30T10:33:51.224Z,81.67
2023-04-30T10:34:51.219Z,82.15
2023-04-30T10:35:51.206Z,81.67
2023-04-30T10:36:51.202Z,81.57
2023-04-30T10:37:51.191Z,82.05
2023-04-30T10:38:51.190Z,81.76
2023-04-30T10:39:51.176Z,81.48
2023-04-30T10:40:51.171Z,82.30
2023-04-30T10:41:51.167Z,82.68
2023-04-30T10:42:51.166Z,81.63
2023-04-30T10:43:51.147Z,81.53
2023-04-30T10:44:51.141Z,81.57
2023-04-30T10:45:51.240Z,80.90
2023-04-30T10:46:51.136Z,81.09
2023-04-30T10:47:51.186Z,80.51
2023-04-30T10:48:51.132Z,80.13
2023-04-30T10:49:51.102Z,79.46
2023-04-30T10:50:51.097Z,79.71
2023-04-30T10:51:51.084Z,79.61
2023-04-30T10:52:51.080Z,78.94
2023-04-30T10:53:51.071Z,78.98
2023-04-30T10:54:51.094Z,78.78
2023-04-30T10:56:51.049Z,78.30
2023-04-30T10:57:51.050Z,78.30
2023-04-30T10:58:51.050Z,78.30
2023-04-30T10:59:51.029Z,78.30
2023-04-30T11:00:51.020Z,78.59
2023-04-30T11:01:51.052Z,78.30
2023-04-30T11:02:51.023Z,78.11
2023-04-30T11:03:50.998Z,78.11
2023-04-30T11:04:51.090Z,77.96
2023-04-30T11:05:50.987Z,76.77
2023-04-30T11:06:51.009Z,77.44
2023-04-30T11:07:50.968Z,78.02
2023-04-30T11:08:50.963Z,78.53
2023-04-30T11:09:50.954Z,78.15
2023-04-30T11:10:50.945Z,78.21
2023-04-30T11:11:50.940Z,78.59
2023-04-30T11:12:50.954Z,78.50
2023-04-30T11:13:50.932Z,78.98
2023-04-30T11:14:50.911Z,78.69
2023-04-30T11:15:50.984Z,79.21
2023-04-30T11:16:50.897Z,78.73
2023-04-30T11:17:50.931Z,78.63
2023-04-30T11:18:50.884Z,78.34
2023-04-30T11:19:50.882Z,78.53
2023-04-30T11:20:50.904Z,78.25
2023-04-30T11:21:50.864Z,78.63
2023-04-30T11:22:50.862Z,78.53
2023-04-30T11:23:50.853Z,79.02
2023-04-30T11:24:50.856Z,79.30
2023-04-30T11:25:50.833Z,79.21
2023-04-30T11:26:50.838Z,78.53
2023-04-30T11:27:51.031Z,78.44
2023-04-30T11:28:50.908Z,78.44
2023-04-30T11:29:50.810Z,78.44
2023-04-30T11:30:50.801Z,78.06
2023-04-30T11:31:50.814Z,78.15
2023-04-30T11:32:50.832Z,77.67
2023-04-30T11:33:50.780Z,77.19
2023-04-30T11:34:50.772Z,77.96
2023-04-30T11:35:50.771Z,78.44
2023-04-30T11:36:50.774Z,78.44
2023-04-30T11:37:50.750Z,78.44
2023-04-30T11:38:50.737Z,78.40
2023-04-30T11:39:50.730Z,79.21
2023-04-30T11:40:50.725Z,77.38
2023-04-30T11:41:50.717Z,76.81
2023-04-30T11:42:50.705Z,76.14
2023-04-30T11:43:50.701Z,75.46
2023-04-30T11:44:50.691Z,75.65
2023-04-30T11:45:50.687Z,76.04
2023-04-30T11:46:50.698Z,75.17
2023-04-30T11:47:50.788Z,74.88
2023-04-30T11:48:50.667Z,75.07
2023-04-30T11:49:50.658Z,75.56
2023-04-30T11:50:50.655Z,74.88
2023-04-30T11:51:50.649Z,74.69
2023-04-30T11:52:50.652Z,74.98
2023-04-30T11:53:50.648Z,75.17
2023-04-30T11:54:50.617Z,74.79
2023-04-30T11:55:50.611Z,74.79
2023-04-30T11:56:50.606Z,74.79
2023-04-30T11:57:50.601Z,74.60
2023-04-30T11:58:50.589Z,74.60
2023-04-30T11:59:50.580Z,73.83
2023-04-30T12:00:50.578Z,74.40
2023-04-30T12:01:50.591Z,73.86
2023-04-30T12:02:50.658Z,74.05
2023-04-30T12:03:50.782Z,73.96
2023-04-30T12:04:50.547Z,74.44
2023-04-30T12:05:50.537Z,74.05
2023-04-30T12:06:50.709Z,73.57
2023-04-30T12:07:50.526Z,73.67
2023-04-30T12:08:50.536Z,73.67
2023-04-30T12:09:50.507Z,72.71
2023-04-30T12:10:50.502Z,72.42
2023-04-30T12:11:50.492Z,72.71
2023-04-30T12:12:52.058Z,73.77
2023-04-30T12:13:50.480Z,74.73
2023-04-30T12:14:50.475Z,74.98
2023-04-30T12:15:50.462Z,75.11
2023-04-30T12:16:50.565Z,74.79
2023-04-30T12:17:50.498Z,74.73
2023-04-30T12:18:52.448Z,75.11
2023-04-30T12:19:50.435Z,75.21
2023-04-30T12:20:50.432Z,74.63
2023-04-30T12:21:50.444Z,74.54
2023-04-30T12:22:50.429Z,74.82
2023-04-30T12:23:50.406Z,73.77
2023-04-30T12:24:50.422Z,73.77
2023-04-30T12:25:50.402Z,73.96
2023-04-30T12:26:50.389Z,74.15
2023-04-30T12:27:50.380Z,74.79
2023-04-30T12:28:50.376Z,74.92
2023-04-30T12:29:50.365Z,74.69
2023-04-30T12:30:50.361Z,74.34
2023-04-30T12:31:50.384Z,74.79
2023-04-30T12:32:50.388Z,74.15
2023-04-30T12:33:50.336Z,74.15
2023-04-30T12:34:50.333Z,74.05
2023-04-30T12:35:50.327Z,73.77
2023-04-30T12:36:50.316Z,73.86
2023-04-30T12:37:50.307Z,73.57
2023-04-30T12:38:50.309Z,73.96
2023-04-30T12:39:50.299Z,74.30
2023-04-30T12:40:50.311Z,74.73
2023-04-30T12:41:50.320Z,74.05
2023-04-30T12:42:50.278Z,74.11
2023-04-30T12:43:50.263Z,73.47
2023-04-30T12:44:50.258Z,73.28
2023-04-30T12:45:50.265Z,74.02
2023-04-30T12:46:50.254Z,74.88
2023-04-30T12:47:50.280Z,74.79
2023-04-30T12:48:50.231Z,74.02
2023-04-30T12:49:50.218Z,74.02
2023-04-30T12:50:50.218Z,74.11
2023-04-30T12:51:50.209Z,74.15
2023-04-30T12:52:50.206Z,73.96
2023-04-30T12:53:50.190Z,73.67
2023-04-30T12:54:50.192Z,72.52
2023-04-30T12:55:50.178Z,72.03
2023-04-30T12:56:50.195Z,72.80
2023-04-30T12:57:50.164Z,73.00
2023-04-30T12:58:50.213Z,74.15
2023-04-30T12:59:50.147Z,73.77